Little Rock, Illinois
Current Conditions -  °F | °C
As of 11:52 PM on Tuesday 27 Jan 2015 (Local Time) from KARR Reporting Station
Clear Clear  
Wind Chill: -6°   Ceiling: Unl
Heat Index: -6°   Visibility: 8mi
Dew Point: -9°   Wind: 0mph
Humidity: 78%   Direction: NA
Pressure: 30.27"   Gusts: NA
Location:  41.6798°N, 88.537°W
Report Text: KARR 280552Z AUTO 00000KT 8SM CLR M06/M09 A3027 RMK AO2 SLP261 T10561089 11022 21072 400001072 51010
Loading
Personal Weather Stations






























Interactive Weather Map New forecast layout! Learn more

10-Day Weather Forecast

Advertisements
Track Severe Weather on mobile